createdAt,value
2018-11-11T00:01:33.858Z,59.33
2018-11-11T00:04:08.234Z,59.08
2018-11-11T00:06:46.344Z,59.04
2018-11-11T00:09:18.265Z,58.77
2018-11-11T00:11:52.814Z,59.21
2018-11-11T00:14:29.230Z,59.84
2018-11-11T00:17:00.541Z,58.51
2018-11-11T00:19:39.233Z,58.96
2018-11-11T00:22:17.582Z,59.22
2018-11-11T00:24:50.556Z,58.58
2018-11-11T00:27:22.526Z,58.82
2018-11-11T00:29:57.288Z,58.25
2018-11-11T00:32:34.203Z,58.09
2018-11-11T00:35:07.271Z,57.46
2018-11-11T00:37:41.696Z,57.02
2018-11-11T00:40:15.250Z,56.51
2018-11-11T00:42:46.539Z,56.17
2018-11-11T00:45:24.165Z,56.13
2018-11-11T00:48:00.989Z,55.92
2018-11-11T00:50:33.193Z,55.44
2018-11-11T00:53:06.208Z,56.33
2018-11-11T00:55:43.909Z,57.15
2018-11-11T00:58:20.186Z,57.07
2018-11-11T01:00:54.706Z,56.45
2018-11-11T01:03:25.609Z,56.82
2018-11-11T01:05:59.235Z,57.04
2018-11-11T01:08:33.359Z,57.15
2018-11-11T01:11:10.776Z,57.04
2018-11-11T01:13:43.033Z,56.61
2018-11-11T01:16:18.124Z,56.26
2018-11-11T01:18:51.130Z,56.61
2018-11-11T01:21:25.819Z,56.18
2018-11-11T01:23:58.918Z,57.56
2018-11-11T01:26:31.172Z,57.20
2018-11-11T01:29:04.777Z,57.45
2018-11-11T01:31:40.749Z,56.50
2018-11-11T01:34:17.672Z,56.66
2018-11-11T01:36:54.000Z,56.83
2018-11-11T01:39:24.181Z,56.39
2018-11-11T01:41:57.756Z,56.11
2018-11-11T01:44:30.857Z,56.22
2018-11-11T01:47:03.385Z,56.14
2018-11-11T01:49:42.135Z,56.75
2018-11-11T01:52:14.852Z,57.17
2018-11-11T01:54:46.030Z,56.34
2018-11-11T01:57:19.288Z,56.84
2018-11-11T01:59:53.968Z,55.67
2018-11-11T02:02:27.124Z,56.50
2018-11-11T02:05:00.625Z,56.63
2018-11-11T02:07:34.224Z,57.30
2018-11-11T02:10:06.482Z,57.31
2018-11-11T02:12:39.097Z,57.67
2018-11-11T02:15:15.516Z,57.47
2018-11-11T02:17:47.350Z,56.76
2018-11-11T02:20:22.512Z,56.28
2018-11-11T02:22:56.721Z,57.37
2018-11-11T02:25:30.047Z,57.23
2018-11-11T02:28:02.731Z,56.39
2018-11-11T02:30:37.020Z,57.20
2018-11-11T02:33:12.598Z,56.78
2018-11-11T02:35:46.929Z,56.12
2018-11-11T02:38:23.540Z,55.58
2018-11-11T02:40:54.663Z,54.99
2018-11-11T02:43:27.418Z,55.76
2018-11-11T02:45:59.832Z,55.56
2018-11-11T02:48:30.802Z,55.76
2018-11-11T02:51:01.205Z,55.14
2018-11-11T02:53:37.044Z,55.51
2018-11-11T02:56:12.645Z,54.92
2018-11-11T02:58:46.166Z,55.37
2018-11-11T03:01:18.769Z,55.98
2018-11-11T03:03:55.323Z,56.65
2018-11-11T03:06:27.488Z,56.51
2018-11-11T03:09:05.079Z,57.06
2018-11-11T03:11:35.258Z,56.09
2018-11-11T03:14:10.512Z,56.02
2018-11-11T03:16:41.452Z,55.27
2018-11-11T03:19:21.162Z,55.52
2018-11-11T03:21:54.732Z,55.23
2018-11-11T03:24:30.163Z,55.45
2018-11-11T03:27:06.742Z,56.57
2018-11-11T03:29:46.952Z,57.41
2018-11-11T03:32:18.960Z,57.22
2018-11-11T03:34:52.961Z,57.08
2018-11-11T03:37:25.221Z,55.77
2018-11-11T03:39:55.933Z,56.32
2018-11-11T03:42:28.748Z,56.41
2018-11-11T03:44:59.432Z,56.36
2018-11-11T03:47:32.183Z,57.08
2018-11-11T03:50:15.348Z,57.36
2018-11-11T03:52:47.828Z,57.90
2018-11-11T03:55:21.799Z,57.75
2018-11-11T03:57:55.379Z,58.62
2018-11-11T04:00:29.576Z,58.02
2018-11-11T04:03:03.102Z,57.33
2018-11-11T04:05:44.560Z,57.35
2018-11-11T04:08:18.998Z,57.04
2018-11-11T04:10:50.319Z,57.30
2018-11-11T04:13:26.266Z,56.44
2018-11-11T04:16:05.511Z,56.24
2018-11-11T04:18:40.792Z,56.73
2018-11-11T04:21:16.954Z,56.96
2018-11-11T04:23:54.209Z,55.92
2018-11-11T04:26:33.601Z,56.94
2018-11-11T04:29:06.472Z,57.10
2018-11-11T04:31:40.509Z,57.25
2018-11-11T04:34:14.019Z,57.28
2018-11-11T04:36:51.441Z,57.52
2018-11-11T04:39:28.477Z,57.13
2018-11-11T04:42:02.604Z,57.29
2018-11-11T04:44:42.267Z,56.93
2018-11-11T04:47:16.006Z,57.29
2018-11-11T04:49:48.988Z,57.40
2018-11-11T04:52:24.177Z,56.82
2018-11-11T04:54:55.912Z,56.14
2018-11-11T04:57:34.032Z,56.23
2018-11-11T05:00:08.262Z,55.61
2018-11-11T05:02:41.736Z,56.26
2018-11-11T05:05:16.274Z,54.91
2018-11-11T05:07:50.364Z,54.10
2018-11-11T05:10:24.304Z,53.42
2018-11-11T05:12:54.808Z,53.57
2018-11-11T05:15:27.616Z,54.69
2018-11-11T05:18:03.172Z,55.00
2018-11-11T05:20:35.017Z,55.97
2018-11-11T05:23:08.200Z,55.86
2018-11-11T05:25:40.358Z,55.72
2018-11-11T05:28:12.646Z,55.51
2018-11-11T05:30:43.610Z,55.60
2018-11-11T05:33:16.204Z,56.78
2018-11-11T05:35:49.560Z,56.68
2018-11-11T05:38:22.345Z,56.26
2018-11-11T05:40:53.221Z,56.35
2018-11-11T05:43:26.061Z,55.10
2018-11-11T05:45:58.619Z,55.96
2018-11-11T05:48:30.764Z,56.18
2018-11-11T05:51:04.001Z,57.26
2018-11-11T05:53:37.774Z,57.73
2018-11-11T05:56:12.062Z,57.40
2018-11-11T05:58:43.496Z,58.09
2018-11-11T06:01:39.858Z,57.33
2018-11-11T06:04:13.646Z,57.61
2018-11-11T06:06:47.218Z,57.80
2018-11-11T06:09:20.471Z,57.31
2018-11-11T06:11:55.712Z,57.84
2018-11-11T06:14:29.324Z,58.51
2018-11-11T06:17:06.650Z,59.00
2018-11-11T06:19:38.817Z,58.84
2018-11-11T06:22:13.856Z,59.33
2018-11-11T06:24:45.037Z,59.71
2018-11-11T06:27:17.325Z,60.35
2018-11-11T06:29:51.633Z,59.68
2018-11-11T06:32:26.873Z,58.75
2018-11-11T06:34:58.557Z,59.77
2018-11-11T06:37:28.692Z,58.90
2018-11-11T06:40:03.180Z,59.67
2018-11-11T06:42:37.559Z,59.63
2018-11-11T06:45:16.634Z,59.04
2018-11-11T06:47:54.957Z,59.42
2018-11-11T06:50:31.297Z,58.98
2018-11-11T06:53:03.206Z,58.68
2018-11-11T06:55:37.305Z,58.48
2018-11-11T06:58:12.112Z,58.38
2018-11-11T07:00:43.782Z,59.30
2018-11-11T07:03:26.192Z,58.61
2018-11-11T07:06:01.189Z,58.21
2018-11-11T07:08:36.543Z,57.63
2018-11-11T07:11:12.090Z,57.66
2018-11-11T07:13:49.833Z,57.32
2018-11-11T07:16:23.982Z,57.80
2018-11-11T07:18:56.758Z,57.97
2018-11-11T07:21:30.824Z,57.19
2018-11-11T07:24:06.116Z,57.79
2018-11-11T07:26:39.052Z,57.42
2018-11-11T07:29:15.978Z,56.85
2018-11-11T07:31:49.999Z,55.83
2018-11-11T07:34:22.404Z,55.71
2018-11-11T07:36:54.458Z,54.77
2018-11-11T07:39:28.189Z,54.98
2018-11-11T07:42:03.558Z,54.80
2018-11-11T07:44:39.471Z,54.89
2018-11-11T07:47:12.104Z,55.02
2018-11-11T07:49:45.160Z,55.49
2018-11-11T07:52:18.237Z,54.50
2018-11-11T07:54:50.014Z,54.42
2018-11-11T07:57:23.840Z,53.35
2018-11-11T07:59:56.803Z,52.44
2018-11-11T08:02:29.405Z,52.24
2018-11-11T08:05:05.765Z,51.39
2018-11-11T08:07:39.667Z,49.85
2018-11-11T08:10:23.816Z,49.24
2018-11-11T08:12:57.511Z,50.53
2018-11-11T08:15:29.726Z,50.12
2018-11-11T08:18:07.373Z,49.28
2018-11-11T08:20:40.532Z,50.48
2018-11-11T08:23:13.583Z,50.11
2018-11-11T08:25:45.851Z,50.21
2018-11-11T08:28:19.528Z,50.19
2018-11-11T08:30:56.331Z,51.02
2018-11-11T08:33:31.988Z,51.19
2018-11-11T08:36:08.654Z,51.98
2018-11-11T08:38:46.253Z,50.98
2018-11-11T08:41:23.423Z,51.00
2018-11-11T08:43:57.996Z,51.01
2018-11-11T08:46:34.217Z,52.48
2018-11-11T08:49:10.423Z,52.29
2018-11-11T08:51:47.407Z,51.75
2018-11-11T08:54:25.180Z,51.85
2018-11-11T08:56:58.106Z,51.46
2018-11-11T08:59:40.813Z,52.00
2018-11-11T09:02:22.260Z,52.43
2018-11-11T09:04:56.334Z,51.75
2018-11-11T09:07:32.244Z,49.50
2018-11-11T09:10:09.150Z,49.65
2018-11-11T09:12:44.484Z,48.45
2018-11-11T09:15:22.690Z,49.14
2018-11-11T09:18:02.752Z,48.18
2018-11-11T09:20:43.256Z,48.03
2018-11-11T09:23:20.378Z,47.25
2018-11-11T09:26:04.449Z,46.92
2018-11-11T09:28:42.366Z,47.79
2018-11-11T09:31:16.995Z,48.90
2018-11-11T09:33:55.484Z,48.21
2018-11-11T09:36:34.002Z,48.73
2018-11-11T09:39:09.166Z,48.79
2018-11-11T09:41:42.302Z,48.09
2018-11-11T09:44:17.811Z,47.60
2018-11-11T09:46:52.225Z,47.93
2018-11-11T09:49:27.236Z,48.54
2018-11-11T09:52:01.417Z,48.13
2018-11-11T09:54:36.843Z,47.99
2018-11-11T09:57:12.984Z,47.70
2018-11-11T09:59:44.559Z,47.72
2018-11-11T10:02:23.429Z,48.00
2018-11-11T10:05:10.465Z,48.13
2018-11-11T10:07:58.287Z,47.94
2018-11-11T10:11:07.943Z,46.54
2018-11-11T10:13:57.844Z,46.78
2018-11-11T10:18:48.063Z,47.21
2018-11-11T10:22:01.093Z,48.39
2018-11-11T10:25:14.145Z,47.50
2018-11-11T10:29:58.040Z,47.48
2018-11-11T10:32:44.020Z,47.62
2018-11-11T10:35:31.155Z,48.44
2018-11-11T10:38:17.750Z,47.29
2018-11-11T10:41:01.634Z,46.71
2018-11-11T10:43:49.264Z,46.48
2018-11-11T10:46:40.665Z,46.19
2018-11-11T10:49:38.879Z,45.65
2018-11-11T10:52:15.574Z,44.96
2018-11-11T10:54:49.822Z,45.70
2018-11-11T10:57:30.931Z,44.55
2018-11-11T11:00:10.101Z,43.66
2018-11-11T11:02:54.691Z,42.58
2018-11-11T11:05:33.189Z,42.32
2018-11-11T11:08:11.201Z,41.54
2018-11-11T11:10:47.576Z,40.64
2018-11-11T11:13:22.448Z,40.09
2018-11-11T11:15:59.405Z,39.64
2018-11-11T11:18:33.597Z,38.62
2018-11-11T11:21:11.016Z,40.02
2018-11-11T11:23:49.462Z,40.77
2018-11-11T11:26:28.535Z,39.45
2018-11-11T11:29:09.208Z,38.57
2018-11-11T11:31:46.677Z,39.55
2018-11-11T11:34:26.345Z,40.43
2018-11-11T11:37:00.149Z,40.39
2018-11-11T11:39:41.549Z,40.32
2018-11-11T11:42:18.934Z,40.79
2018-11-11T11:44:55.349Z,39.90
2018-11-11T11:47:31.948Z,39.56
2018-11-11T11:50:09.330Z,40.21
2018-11-11T11:52:48.270Z,40.37
2018-11-11T11:55:27.434Z,40.17
2018-11-11T11:58:26.265Z,40.06
2018-11-11T12:01:04.381Z,40.53
2018-11-11T12:03:39.800Z,40.31
2018-11-11T12:06:15.710Z,40.50
2018-11-11T12:08:53.848Z,40.41
2018-11-11T12:11:27.272Z,40.57
2018-11-11T12:14:05.642Z,40.02
2018-11-11T12:16:41.395Z,39.94
2018-11-11T12:19:18.365Z,40.00
2018-11-11T12:21:52.802Z,40.78
2018-11-11T12:24:27.556Z,38.94
2018-11-11T12:27:02.969Z,39.28
2018-11-11T12:29:43.126Z,39.64
2018-11-11T12:32:21.005Z,39.72
2018-11-11T12:35:00.555Z,39.58
2018-11-11T12:37:37.965Z,39.44
2018-11-11T12:40:17.587Z,40.15
2018-11-11T12:42:54.235Z,39.46
2018-11-11T12:45:28.827Z,40.21
2018-11-11T12:48:02.313Z,40.97
2018-11-11T12:50:40.817Z,40.62
2018-11-11T12:53:19.352Z,40.89
2018-11-11T12:59:13.228Z,41.90
2018-11-11T13:01:52.780Z,41.69
2018-11-11T13:04:34.403Z,42.10
2018-11-11T13:07:12.464Z,42.26
2018-11-11T13:09:48.649Z,41.88
2018-11-11T13:12:28.619Z,42.29
2018-11-11T13:17:53.261Z,41.82
2018-11-11T13:20:34.598Z,41.20
2018-11-11T13:23:24.428Z,41.11
2018-11-11T13:26:01.177Z,42.22
2018-11-11T13:28:37.230Z,42.44
2018-11-11T13:31:11.960Z,41.87
2018-11-11T13:33:50.242Z,41.41
2018-11-11T13:36:33.875Z,40.98
2018-11-11T13:39:10.565Z,40.67
2018-11-11T13:41:47.427Z,40.98
2018-11-11T13:44:23.606Z,40.15
2018-11-11T13:46:58.460Z,41.22
2018-11-11T13:49:34.856Z,40.60
2018-11-11T13:52:10.587Z,40.01
2018-11-11T13:54:50.611Z,40.32
2018-11-11T13:57:29.723Z,40.22
2018-11-11T14:00:13.413Z,39.48
2018-11-11T14:02:59.363Z,38.68
2018-11-11T14:05:37.192Z,38.13
2018-11-11T14:08:11.277Z,37.78
2018-11-11T14:10:48.557Z,36.62
2018-11-11T14:13:24.427Z,36.28
2018-11-11T14:16:03.734Z,36.10
2018-11-11T14:18:40.211Z,35.77
2018-11-11T14:21:13.741Z,35.55
2018-11-11T14:23:51.271Z,35.82
2018-11-11T14:26:30.536Z,37.03
2018-11-11T14:29:05.541Z,36.59
2018-11-11T14:31:40.626Z,36.50
2018-11-11T14:34:18.488Z,36.61
2018-11-11T14:36:56.238Z,36.17
2018-11-11T14:39:32.249Z,36.64
2018-11-11T14:42:20.801Z,36.83
2018-11-11T14:44:54.048Z,36.98
2018-11-11T14:47:31.424Z,37.33
2018-11-11T14:50:07.914Z,36.64
2018-11-11T14:52:41.188Z,36.42
2018-11-11T14:55:22.076Z,37.45
2018-11-11T14:57:59.542Z,37.51
2018-11-11T15:00:40.658Z,37.17
2018-11-11T15:06:12.422Z,36.39
2018-11-11T15:08:53.997Z,37.15
2018-11-11T15:11:30.828Z,36.90
2018-11-11T15:14:12.471Z,37.23
2018-11-11T15:16:48.367Z,36.67
2018-11-11T15:19:25.161Z,37.10
2018-11-11T15:22:01.657Z,36.39
2018-11-11T15:24:37.057Z,37.29
2018-11-11T15:27:40.707Z,36.86
2018-11-11T15:30:29.503Z,35.93
2018-11-11T15:33:05.845Z,36.88
2018-11-11T15:36:46.468Z,37.18
2018-11-11T15:39:24.766Z,37.30
2018-11-11T15:42:03.044Z,37.56
2018-11-11T15:44:40.993Z,38.31
2018-11-11T15:47:20.516Z,38.54
2018-11-11T15:50:01.198Z,38.36
2018-11-11T15:52:38.842Z,38.26
2018-11-11T15:55:18.517Z,38.58
2018-11-11T15:57:57.954Z,38.62
2018-11-11T16:00:44.690Z,39.32
2018-11-11T16:03:20.379Z,39.67
2018-11-11T16:05:57.006Z,39.68
2018-11-11T16:08:38.580Z,39.25
2018-11-11T16:13:53.610Z,40.03
2018-11-11T16:16:36.524Z,39.08
2018-11-11T16:19:17.334Z,40.48
2018-11-11T16:21:54.263Z,40.29
2018-11-11T16:24:30.559Z,40.42
2018-11-11T16:27:10.945Z,40.75
2018-11-11T16:29:57.591Z,41.02
2018-11-11T16:32:32.316Z,40.93
2018-11-11T16:35:13.285Z,40.81
2018-11-11T16:37:51.132Z,40.51
2018-11-11T16:40:26.572Z,40.43
2018-11-11T16:43:01.497Z,39.90
2018-11-11T16:45:44.134Z,40.22
2018-11-11T16:48:16.557Z,40.68
2018-11-11T16:50:52.289Z,40.55
2018-11-11T16:53:27.889Z,40.62
2018-11-11T16:56:01.545Z,40.36
2018-11-11T16:58:37.393Z,39.59
2018-11-11T17:01:17.811Z,40.25
2018-11-11T17:03:52.308Z,39.10
2018-11-11T17:06:31.219Z,39.61
2018-11-11T17:09:07.561Z,39.19
2018-11-11T17:11:42.288Z,38.89
2018-11-11T17:14:18.620Z,39.15
2018-11-11T17:16:59.458Z,39.02
2018-11-11T17:19:37.978Z,39.50
2018-11-11T17:22:18.808Z,39.85
2018-11-11T17:24:54.795Z,39.64
2018-11-11T17:27:38.581Z,39.75
2018-11-11T17:30:19.267Z,40.15
2018-11-11T17:32:58.307Z,39.75
2018-11-11T17:35:34.585Z,40.81
2018-11-11T17:38:12.204Z,40.45
2018-11-11T17:40:48.521Z,39.38
2018-11-11T17:43:25.752Z,40.17
2018-11-11T17:46:04.385Z,39.90
2018-11-11T17:51:30.326Z,40.42
2018-11-11T17:54:07.034Z,40.62
2018-11-11T17:59:38.607Z,41.86
2018-11-11T18:02:37.642Z,41.55
2018-11-11T18:05:24.857Z,41.67
2018-11-11T18:08:13.015Z,41.39
2018-11-11T18:10:52.247Z,41.26
2018-11-11T18:13:32.130Z,41.73
2018-11-11T18:16:14.312Z,41.16
2018-11-11T18:18:53.164Z,40.85
2018-11-11T18:21:32.260Z,41.26
2018-11-11T18:24:19.002Z,41.60
2018-11-11T18:26:57.212Z,41.29
2018-11-11T18:32:16.501Z,41.44
2018-11-11T18:34:53.049Z,42.37
2018-11-11T18:37:33.062Z,42.10
2018-11-11T18:40:11.797Z,41.88
2018-11-11T18:42:53.342Z,41.68
2018-11-11T18:45:30.598Z,42.01
2018-11-11T18:48:06.426Z,42.37
2018-11-11T18:50:42.318Z,42.01
2018-11-11T18:53:18.724Z,42.86
2018-11-11T18:59:05.435Z,43.13
2018-11-11T19:01:41.833Z,43.80
2018-11-11T19:04:17.187Z,43.25
2018-11-11T19:07:01.524Z,43.82
2018-11-11T19:09:43.650Z,43.13
2018-11-11T19:12:19.676Z,44.13
2018-11-11T19:14:59.303Z,43.53
2018-11-11T19:17:39.585Z,43.96
2018-11-11T19:20:15.605Z,43.05
2018-11-11T19:22:50.635Z,42.79
2018-11-11T19:25:31.123Z,43.24
2018-11-11T19:28:07.463Z,43.22
2018-11-11T19:30:43.363Z,42.94
2018-11-11T19:33:19.629Z,43.18
2018-11-11T19:35:56.917Z,43.00
2018-11-11T19:38:31.485Z,42.94
2018-11-11T19:41:09.708Z,42.56
2018-11-11T19:43:50.487Z,41.34
2018-11-11T19:46:27.348Z,42.25
2018-11-11T19:49:08.245Z,41.45
2018-11-11T19:51:42.259Z,42.17
2018-11-11T19:54:16.670Z,41.58
2018-11-11T19:56:56.523Z,40.40
2018-11-11T19:59:35.686Z,40.70
2018-11-11T20:02:17.281Z,40.75
2018-11-11T20:04:51.695Z,41.80
2018-11-11T20:07:36.487Z,42.39
2018-11-11T20:10:15.823Z,42.28
2018-11-11T20:12:51.879Z,41.89
2018-11-11T20:15:32.872Z,42.72
2018-11-11T20:18:07.672Z,42.14
2018-11-11T20:20:50.488Z,41.99
2018-11-11T20:23:29.744Z,42.19
2018-11-11T20:26:08.033Z,41.14
2018-11-11T20:28:48.216Z,41.43
2018-11-11T20:31:34.813Z,41.92
2018-11-11T20:34:12.268Z,42.15
2018-11-11T20:36:47.653Z,42.24
2018-11-11T20:39:21.669Z,42.34
2018-11-11T20:41:55.294Z,40.62
2018-11-11T20:44:39.101Z,41.06
2018-11-11T20:47:11.881Z,40.85
2018-11-11T20:49:53.153Z,40.87
2018-11-11T20:52:31.413Z,39.70
2018-11-11T20:55:08.782Z,40.58
2018-11-11T20:57:41.653Z,41.28
2018-11-11T21:00:21.368Z,40.83
2018-11-11T21:02:53.846Z,41.35
2018-11-11T21:05:30.192Z,40.75
2018-11-11T21:08:11.188Z,41.64
2018-11-11T21:10:57.374Z,40.77
2018-11-11T21:13:38.727Z,41.06
2018-11-11T21:16:14.257Z,40.92
2018-11-11T21:21:50.256Z,41.52
2018-11-11T21:24:29.921Z,42.07
2018-11-11T21:27:10.056Z,43.00
2018-11-11T21:29:51.118Z,42.73
2018-11-11T21:32:26.730Z,42.71
2018-11-11T21:35:06.238Z,42.65
2018-11-11T21:37:52.604Z,43.39
2018-11-11T21:40:28.079Z,44.04
2018-11-11T21:43:03.615Z,45.42
2018-11-11T21:45:41.287Z,46.11
2018-11-11T21:48:14.643Z,45.28
2018-11-11T21:50:53.801Z,46.04
2018-11-11T21:53:45.248Z,46.94
2018-11-11T21:59:15.321Z,44.93
2018-11-11T22:01:55.953Z,45.91
2018-11-11T22:04:33.651Z,46.15
2018-11-11T22:07:09.216Z,47.17
2018-11-11T22:09:51.687Z,46.86
2018-11-11T22:12:27.687Z,46.69
2018-11-11T22:18:07.753Z,45.82
2018-11-11T22:20:43.461Z,46.46
2018-11-11T22:23:21.499Z,46.08
2018-11-11T22:25:59.828Z,46.94
2018-11-11T22:28:41.881Z,46.62
2018-11-11T22:31:19.315Z,47.33
2018-11-11T22:33:55.212Z,47.41
2018-11-11T22:36:29.497Z,47.58
2018-11-11T22:39:03.858Z,46.85
2018-11-11T22:41:38.937Z,47.96
2018-11-11T22:44:14.138Z,47.63
2018-11-11T22:46:48.798Z,46.42
2018-11-11T22:49:25.367Z,45.59
2018-11-11T22:52:02.278Z,45.78
2018-11-11T22:54:37.792Z,45.52
2018-11-11T22:57:15.322Z,45.68
2018-11-11T22:59:51.326Z,45.89
2018-11-11T23:02:27.342Z,46.68
2018-11-11T23:05:04.426Z,46.92
2018-11-11T23:07:42.836Z,46.37
2018-11-11T23:10:15.084Z,46.14
2018-11-11T23:12:58.046Z,46.19
2018-11-11T23:15:32.920Z,45.69
2018-11-11T23:18:11.436Z,46.18
2018-11-11T23:20:49.953Z,45.81
2018-11-11T23:23:27.513Z,46.08
2018-11-11T23:26:03.755Z,47.13
2018-11-11T23:28:40.195Z,46.95
2018-11-11T23:31:15.857Z,47.19
2018-11-11T23:33:50.440Z,46.59
2018-11-11T23:36:29.798Z,46.28
2018-11-11T23:39:09.164Z,47.35
2018-11-11T23:41:48.223Z,46.52
2018-11-11T23:44:24.632Z,45.99
2018-11-11T23:46:58.835Z,46.15
2018-11-11T23:49:42.261Z,47.15
2018-11-11T23:52:22.062Z,47.30
2018-11-11T23:55:02.057Z,47.81
2018-11-11T23:57:36.897Z,47.59
